createdAt,value
2019-06-25T00:02:18.099Z,18.08
2019-06-25T00:04:47.640Z,18.06
2019-06-25T00:07:17.167Z,18.10
2019-06-25T00:09:46.684Z,18.06
2019-06-25T00:12:16.165Z,18.04
2019-06-25T00:14:45.711Z,17.98
2019-06-25T00:17:15.229Z,17.98
2019-06-25T00:19:44.691Z,18.06
2019-06-25T00:22:14.166Z,18.13
2019-06-25T00:24:43.642Z,18.09
2019-06-25T00:27:13.092Z,18.14
2019-06-25T00:29:55.543Z,18.22
2019-06-25T00:32:15.534Z,18.23
2019-06-25T00:34:45.001Z,18.25
2019-06-25T00:37:14.474Z,18.24
2019-06-25T00:39:43.949Z,18.26
2019-06-25T00:42:13.429Z,18.28
2019-06-25T00:44:42.942Z,18.26
2019-06-25T00:47:12.389Z,18.19
2019-06-25T00:49:41.848Z,18.17
2019-06-25T00:52:11.293Z,18.25
2019-06-25T00:54:40.851Z,18.22
2019-06-25T00:57:10.337Z,18.16
2019-06-25T00:59:39.798Z,18.20
2019-06-25T01:02:28.230Z,18.18
2019-06-25T01:04:57.695Z,18.09
2019-06-25T01:07:27.184Z,18.13
2019-06-25T01:09:56.637Z,18.16
2019-06-25T01:12:26.132Z,18.19
2019-06-25T01:14:55.628Z,18.18
2019-06-25T01:17:25.070Z,18.22
2019-06-25T01:19:54.548Z,18.24
2019-06-25T01:22:24.024Z,18.23
2019-06-25T01:24:53.494Z,18.30
2019-06-25T01:27:23.001Z,18.32
2019-06-25T01:29:52.521Z,18.31
2019-06-25T01:32:21.961Z,18.34
2019-06-25T01:34:51.415Z,18.38
2019-06-25T01:37:20.905Z,18.37
2019-06-25T01:39:50.389Z,18.40
2019-06-25T01:42:19.909Z,18.34
2019-06-25T01:44:49.384Z,18.22
2019-06-25T01:47:18.867Z,18.20
2019-06-25T01:49:48.378Z,18.23
2019-06-25T01:52:17.886Z,18.26
2019-06-25T01:54:47.340Z,18.15
2019-06-25T01:57:16.893Z,18.16
2019-06-25T01:59:46.412Z,18.20
2019-06-25T02:02:15.898Z,18.22
2019-06-25T02:04:48.237Z,18.26
2019-06-25T02:07:16.568Z,18.28
2019-06-25T02:09:46.028Z,18.32
2019-06-25T02:12:15.494Z,18.28
2019-06-25T02:14:44.997Z,18.16
2019-06-25T02:17:14.509Z,18.15
2019-06-25T02:19:43.981Z,18.17
2019-06-25T02:22:13.454Z,18.18
2019-06-25T02:24:42.936Z,18.19
2019-06-25T02:27:12.414Z,18.24
2019-06-25T02:29:41.884Z,18.21
2019-06-25T02:32:11.351Z,18.26
2019-06-25T02:34:40.810Z,18.32
2019-06-25T02:37:10.318Z,18.32
2019-06-25T02:39:39.766Z,18.30
2019-06-25T02:42:09.291Z,18.19
2019-06-25T02:44:38.802Z,18.21
2019-06-25T02:47:08.293Z,18.19
2019-06-25T02:49:37.740Z,18.16
2019-06-25T02:52:07.216Z,18.14
2019-06-25T02:54:36.689Z,18.14
2019-06-25T02:57:06.140Z,18.14
2019-06-25T02:59:35.693Z,18.09
2019-06-25T03:02:05.143Z,18.01
2019-06-25T03:04:34.595Z,18.05
2019-06-25T03:07:04.104Z,17.99
2019-06-25T03:09:33.835Z,18.00
2019-06-25T03:12:03.282Z,17.88
2019-06-25T03:14:32.747Z,17.84
2019-06-25T03:17:02.248Z,17.77
2019-06-25T03:19:31.693Z,17.82
2019-06-25T03:22:01.288Z,17.88
2019-06-25T03:24:30.790Z,17.98
2019-06-25T03:27:00.249Z,18.02
2019-06-25T03:29:33.622Z,18.07
2019-06-25T03:32:08.347Z,18.08
2019-06-25T03:34:32.078Z,18.22
2019-06-25T03:37:01.616Z,18.34
2019-06-25T03:39:31.078Z,18.48
2019-06-25T03:42:00.607Z,18.63
2019-06-25T03:44:30.071Z,18.68
2019-06-25T03:46:59.580Z,18.82
2019-06-25T03:49:29.037Z,18.94
2019-06-25T03:51:58.502Z,19.08
2019-06-25T03:54:28.019Z,19.12
2019-06-25T03:56:57.469Z,19.22
2019-06-25T03:59:26.944Z,19.25
2019-06-25T04:01:56.650Z,19.34
2019-06-25T04:04:26.142Z,19.37
2019-06-25T04:06:55.657Z,19.32
2019-06-25T04:09:25.127Z,19.29
2019-06-25T04:11:54.601Z,19.22
2019-06-25T04:14:24.077Z,19.29
2019-06-25T04:16:53.551Z,19.36
2019-06-25T04:19:23.034Z,19.42
2019-06-25T04:21:52.494Z,19.49
2019-06-25T04:24:21.998Z,19.57
2019-06-25T04:26:51.441Z,19.58
2019-06-25T04:29:20.949Z,19.62
2019-06-25T04:31:50.460Z,19.65
2019-06-25T04:34:19.998Z,19.73
2019-06-25T04:36:49.499Z,19.74
2019-06-25T04:39:18.984Z,19.75
2019-06-25T04:41:48.486Z,19.93
2019-06-25T04:44:17.952Z,20.03
2019-06-25T04:46:47.457Z,20.09
2019-06-25T04:49:16.907Z,20.24
2019-06-25T04:51:46.383Z,20.54
2019-06-25T04:54:15.895Z,20.86
2019-06-25T04:56:45.437Z,21.69
2019-06-25T04:59:14.904Z,22.62
2019-06-25T05:01:44.335Z,23.45
2019-06-25T05:04:13.812Z,24.28
2019-06-25T05:06:43.303Z,24.84
2019-06-25T05:09:12.861Z,25.67
2019-06-25T05:11:42.424Z,25.78
2019-06-25T05:14:12.221Z,26.15
2019-06-25T05:16:42.007Z,26.27
2019-06-25T05:19:11.610Z,26.60
2019-06-25T05:21:41.945Z,26.65
2019-06-25T05:24:11.453Z,27.09
2019-06-25T05:26:40.990Z,27.22
2019-06-25T05:29:10.466Z,27.53
2019-06-25T05:31:40.250Z,27.50
2019-06-25T05:34:09.728Z,27.58
2019-06-25T05:37:04.024Z,27.75
2019-06-25T05:39:33.470Z,27.75
2019-06-25T05:42:02.917Z,27.92
2019-06-25T05:44:32.389Z,27.92
2019-06-25T05:47:03.491Z,28.11
2019-06-25T05:49:33.033Z,28.13
2019-06-25T05:52:02.537Z,27.57
2019-06-25T05:54:31.994Z,27.35
2019-06-25T05:57:01.475Z,27.34
2019-06-25T05:59:30.977Z,26.79
2019-06-25T06:02:00.450Z,26.80
2019-06-25T06:04:29.949Z,26.57
2019-06-25T06:06:59.421Z,26.14
2019-06-25T06:09:28.899Z,26.27
2019-06-25T06:12:00.908Z,26.04
2019-06-25T06:14:30.518Z,25.67
2019-06-25T06:16:59.992Z,25.46
2019-06-25T06:19:30.264Z,25.29
2019-06-25T06:21:59.833Z,25.19
2019-06-25T06:24:29.612Z,25.15
2019-06-25T06:26:59.054Z,24.86
2019-06-25T06:29:28.552Z,24.87
2019-06-25T06:31:58.435Z,24.77
2019-06-25T06:34:28.192Z,24.77
2019-06-25T06:36:57.635Z,24.69
2019-06-25T06:39:27.178Z,24.59
2019-06-25T06:41:56.657Z,24.61
2019-06-25T06:44:26.239Z,24.58
2019-06-25T06:46:55.847Z,24.49
2019-06-25T06:49:25.324Z,24.48
2019-06-25T06:51:54.785Z,24.37
2019-06-25T06:54:24.227Z,24.37
2019-06-25T06:56:53.873Z,24.52
2019-06-25T06:59:23.574Z,24.54
2019-06-25T07:01:53.138Z,24.40
2019-06-25T07:04:22.631Z,24.20
2019-06-25T07:06:52.126Z,24.17
2019-06-25T07:09:22.035Z,24.06
2019-06-25T07:11:51.599Z,24.14
2019-06-25T07:14:21.075Z,24.12
2019-06-25T07:16:50.561Z,24.15
2019-06-25T07:19:20.280Z,24.13
2019-06-25T07:21:50.134Z,24.13
2019-06-25T07:24:19.644Z,24.13
2019-06-25T07:26:49.132Z,24.08
2019-06-25T07:29:18.839Z,23.93
2019-06-25T07:31:48.451Z,23.82
2019-06-25T07:34:18.161Z,23.85
2019-06-25T07:36:47.939Z,23.94
2019-06-25T07:39:17.446Z,24.00
2019-06-25T07:41:46.962Z,24.10
2019-06-25T07:44:16.454Z,24.07
2019-06-25T07:46:46.003Z,24.03
2019-06-25T07:49:15.575Z,24.01
2019-06-25T07:51:45.047Z,24.07
2019-06-25T07:54:14.803Z,24.11
2019-06-25T07:56:44.420Z,24.09
2019-06-25T07:59:14.183Z,24.11
2019-06-25T08:01:44.803Z,24.27
2019-06-25T08:04:24.872Z,24.33
2019-06-25T08:06:45.861Z,24.35
2019-06-25T08:09:15.412Z,24.45
2019-06-25T08:11:44.920Z,24.36
2019-06-25T08:14:14.417Z,24.16
2019-06-25T08:16:43.904Z,24.07
2019-06-25T08:19:13.751Z,24.10
2019-06-25T08:21:43.686Z,24.31
2019-06-25T08:24:13.763Z,24.32
2019-06-25T08:26:43.473Z,24.41
2019-06-25T08:29:12.973Z,24.31
2019-06-25T08:31:42.549Z,24.35
2019-06-25T08:34:12.243Z,24.45
2019-06-25T08:36:41.707Z,24.43
2019-06-25T08:39:11.212Z,24.46
2019-06-25T08:41:40.735Z,24.66
2019-06-25T08:44:10.326Z,24.71
2019-06-25T08:46:40.025Z,24.71
2019-06-25T08:49:09.543Z,24.88
2019-06-25T08:51:39.048Z,25.07
2019-06-25T08:54:08.646Z,25.05
2019-06-25T08:56:38.169Z,25.13
2019-06-25T08:59:07.638Z,25.29
2019-06-25T09:01:37.129Z,25.49
2019-06-25T09:04:06.729Z,25.41
2019-06-25T09:06:36.167Z,25.40
2019-06-25T09:09:07.464Z,25.33
2019-06-25T09:11:37.061Z,25.28
2019-06-25T09:14:07.008Z,25.32
2019-06-25T09:16:36.559Z,25.41
2019-06-25T09:19:06.174Z,25.60
2019-06-25T09:21:35.759Z,25.84
2019-06-25T09:24:05.234Z,25.90
2019-06-25T09:26:34.747Z,25.92
2019-06-25T09:29:04.338Z,25.76
2019-06-25T09:31:33.920Z,25.74
2019-06-25T09:34:03.411Z,26.15
2019-06-25T09:36:32.894Z,26.28
2019-06-25T09:39:02.780Z,26.28
2019-06-25T09:41:30.487Z,26.01
2019-06-25T09:44:00.582Z,25.94
2019-06-25T09:46:29.850Z,25.76
2019-06-25T09:48:59.708Z,25.82
2019-06-25T09:51:29.356Z,26.00
2019-06-25T09:53:58.940Z,26.20
2019-06-25T09:56:30.344Z,26.05
2019-06-25T09:59:00.235Z,25.86
2019-06-25T10:01:44.215Z,25.81
2019-06-25T10:04:00.925Z,25.66
2019-06-25T10:06:30.392Z,25.27
2019-06-25T10:08:59.905Z,25.25
2019-06-25T10:11:29.428Z,25.25
2019-06-25T10:13:58.964Z,25.49
2019-06-25T10:16:28.407Z,25.62
2019-06-25T10:18:57.881Z,25.72
2019-06-25T10:21:27.492Z,25.77
2019-06-25T10:23:57.016Z,25.71
2019-06-25T10:26:26.638Z,25.98
2019-06-25T10:28:56.299Z,26.13
2019-06-25T10:31:25.753Z,26.28
2019-06-25T10:33:55.257Z,26.22
2019-06-25T10:36:24.769Z,26.01
2019-06-25T10:38:54.292Z,25.83
2019-06-25T10:41:26.004Z,25.93
2019-06-25T10:43:57.581Z,25.97
2019-06-25T10:46:27.128Z,25.84
2019-06-25T10:48:56.636Z,25.82
2019-06-25T10:51:26.525Z,25.89
2019-06-25T10:53:56.054Z,26.05
2019-06-25T10:56:27.588Z,25.94
2019-06-25T10:58:56.824Z,25.93
2019-06-25T11:01:26.332Z,25.95
2019-06-25T11:03:55.810Z,25.91
2019-06-25T11:06:25.393Z,26.01
2019-06-25T11:08:54.873Z,25.95
2019-06-25T11:11:24.348Z,25.96
2019-06-25T11:14:07.314Z,25.99
2019-06-25T11:16:25.013Z,25.76
2019-06-25T11:18:54.479Z,25.67
2019-06-25T11:21:24.005Z,25.76
2019-06-25T11:23:53.505Z,25.73
2019-06-25T11:26:24.215Z,25.76
2019-06-25T11:28:53.745Z,25.68
2019-06-25T11:31:23.296Z,25.73
2019-06-25T11:33:52.742Z,25.77
2019-06-25T11:36:22.403Z,25.82
2019-06-25T11:38:51.941Z,25.79
2019-06-25T11:41:21.402Z,25.88
2019-06-25T11:43:50.985Z,25.93
2019-06-25T11:46:20.668Z,26.12
2019-06-25T11:48:50.239Z,26.09
2019-06-25T11:51:19.908Z,26.27
2019-06-25T11:53:49.424Z,26.30
2019-06-25T11:56:18.954Z,26.36
2019-06-25T11:58:48.518Z,26.25
2019-06-25T12:01:18.369Z,26.36
2019-06-25T12:03:47.852Z,26.44
2019-06-25T12:06:32.513Z,26.49
2019-06-25T12:08:48.623Z,26.42
2019-06-25T12:11:18.108Z,26.56
2019-06-25T12:13:47.602Z,26.44
2019-06-25T12:16:17.210Z,26.37
2019-06-25T12:18:46.690Z,26.19
2019-06-25T12:21:16.179Z,26.09
2019-06-25T12:23:45.714Z,26.20
2019-06-25T12:26:15.257Z,26.31
2019-06-25T12:28:44.751Z,26.27
2019-06-25T12:31:14.301Z,26.13
2019-06-25T12:33:43.770Z,26.44
2019-06-25T12:36:13.226Z,26.60
2019-06-25T12:38:42.714Z,26.45
2019-06-25T12:41:12.192Z,26.26
2019-06-25T12:43:41.717Z,26.15
2019-06-25T12:46:11.386Z,26.14
2019-06-25T12:48:40.904Z,26.13
2019-06-25T12:51:14.202Z,26.34
2019-06-25T12:53:41.609Z,26.56
2019-06-25T12:56:11.070Z,26.60
2019-06-25T12:58:40.578Z,26.63
2019-06-25T13:01:10.066Z,26.55
2019-06-25T13:03:39.540Z,26.86
2019-06-25T13:06:09.033Z,27.02
2019-06-25T13:08:38.573Z,27.19
2019-06-25T13:11:08.100Z,27.13
2019-06-25T13:13:37.589Z,27.13
2019-06-25T13:16:07.743Z,27.08
2019-06-25T13:18:38.671Z,26.99
2019-06-25T13:21:12.087Z,26.83
2019-06-25T13:23:41.610Z,26.59
2019-06-25T13:26:11.081Z,26.60
2019-06-25T13:28:40.530Z,26.47
2019-06-25T13:31:10.033Z,26.35
2019-06-25T13:33:39.633Z,26.32
2019-06-25T13:36:09.150Z,26.22
2019-06-25T13:38:38.925Z,26.20
2019-06-25T13:41:08.434Z,26.11
2019-06-25T13:43:38.018Z,26.18
2019-06-25T13:46:07.748Z,26.35
2019-06-25T13:48:37.493Z,26.47
2019-06-25T13:51:07.036Z,26.69
2019-06-25T13:53:36.506Z,26.93
2019-06-25T13:56:06.272Z,27.17
2019-06-25T13:58:35.946Z,27.44
2019-06-25T14:01:05.476Z,27.68
2019-06-25T14:03:34.959Z,27.32
2019-06-25T14:06:04.437Z,26.81
2019-06-25T14:08:33.923Z,26.86
2019-06-25T14:11:03.404Z,26.74
2019-06-25T14:13:32.968Z,26.69
2019-06-25T14:16:02.503Z,26.37
2019-06-25T14:18:32.046Z,25.77
2019-06-25T14:21:01.551Z,25.39
2019-06-25T14:23:31.064Z,25.32
2019-06-25T14:26:10.440Z,25.25
2019-06-25T14:28:31.844Z,25.27
2019-06-25T14:31:01.488Z,25.51
2019-06-25T14:33:30.982Z,25.58
2019-06-25T14:36:00.591Z,25.60
2019-06-25T14:38:33.204Z,25.74
2019-06-25T14:41:02.762Z,25.81
2019-06-25T14:43:34.080Z,25.92
2019-06-25T14:46:03.791Z,25.77
2019-06-25T14:48:33.400Z,25.90
2019-06-25T14:51:02.905Z,26.07
2019-06-25T14:53:32.351Z,26.07
2019-06-25T14:56:01.867Z,26.09
2019-06-25T14:58:31.363Z,26.02
2019-06-25T15:01:01.253Z,26.10
2019-06-25T15:03:30.847Z,26.21
2019-06-25T15:06:00.710Z,26.26
2019-06-25T15:08:31.834Z,26.25
2019-06-25T15:11:01.682Z,26.26
2019-06-25T15:13:31.282Z,26.31
2019-06-25T15:16:00.854Z,26.47
2019-06-25T15:18:30.393Z,26.45
2019-06-25T15:20:59.944Z,26.24
2019-06-25T15:23:29.516Z,26.51
2019-06-25T15:25:59.111Z,26.69
2019-06-25T15:28:28.997Z,26.71
2019-06-25T15:30:58.750Z,26.40
2019-06-25T15:33:28.942Z,26.59
2019-06-25T15:35:59.956Z,26.80
2019-06-25T15:38:29.527Z,26.85
2019-06-25T15:40:59.390Z,26.63
2019-06-25T15:43:32.280Z,26.42
2019-06-25T15:46:00.637Z,26.26
2019-06-25T15:48:30.694Z,25.89
2019-06-25T15:51:00.480Z,25.90
2019-06-25T15:53:30.111Z,25.63
2019-06-25T15:55:59.640Z,25.49
2019-06-25T15:58:29.154Z,25.33
2019-06-25T16:00:58.657Z,25.10
2019-06-25T16:03:28.239Z,24.68
2019-06-25T16:05:57.691Z,24.40
2019-06-25T16:08:27.233Z,24.24
2019-06-25T16:10:56.690Z,23.84
2019-06-25T16:13:26.214Z,23.68
2019-06-25T16:15:55.766Z,23.56
2019-06-25T16:18:25.400Z,23.62
2019-06-25T16:20:54.867Z,23.66
2019-06-25T16:23:24.542Z,23.52
2019-06-25T16:25:54.183Z,23.53
2019-06-25T16:28:23.656Z,23.34
2019-06-25T16:30:53.143Z,23.27
2019-06-25T16:33:22.617Z,23.18
2019-06-25T16:35:52.146Z,23.07
2019-06-25T16:38:30.563Z,23.11
2019-06-25T16:40:52.966Z,23.16
2019-06-25T16:43:23.463Z,23.03
2019-06-25T16:46:00.518Z,23.00
2019-06-25T16:48:24.465Z,23.03
2019-06-25T16:50:53.984Z,23.08
2019-06-25T16:53:23.653Z,23.04
2019-06-25T16:55:53.222Z,23.05
2019-06-25T16:58:22.671Z,22.89
2019-06-25T17:00:52.180Z,22.73
2019-06-25T17:03:21.659Z,22.48
2019-06-25T17:05:51.181Z,22.30
2019-06-25T17:08:20.922Z,22.11
2019-06-25T17:10:53.038Z,22.05
2019-06-25T17:13:23.165Z,21.93
2019-06-25T17:15:53.921Z,21.92
2019-06-25T17:20:58.000Z,21.94
2019-06-25T17:23:31.361Z,22.05
2019-06-25T17:26:14.817Z,22.06
2019-06-25T17:28:45.090Z,22.07
2019-06-25T17:31:14.783Z,22.03
2019-06-25T17:33:44.775Z,21.96
2019-06-25T17:36:14.388Z,22.01
2019-06-25T17:38:51.303Z,21.99
2019-06-25T17:41:26.203Z,21.73
2019-06-25T17:43:58.154Z,21.69
2019-06-25T17:46:29.709Z,21.67
2019-06-25T17:48:59.490Z,21.69
2019-06-25T17:51:29.778Z,21.66
2019-06-25T17:53:59.326Z,21.73
2019-06-25T17:56:28.971Z,21.76
2019-06-25T17:58:58.777Z,21.77
2019-06-25T18:01:28.454Z,21.76
2019-06-25T18:03:58.232Z,21.76
2019-06-25T18:06:27.794Z,21.76
2019-06-25T18:08:57.366Z,21.82
2019-06-25T18:11:26.915Z,21.88
2019-06-25T18:13:56.504Z,21.79
2019-06-25T18:16:26.097Z,21.82
2019-06-25T18:18:55.712Z,21.76
2019-06-25T18:21:25.306Z,21.78
2019-06-25T18:24:02.868Z,21.73
2019-06-25T18:26:32.551Z,21.74
2019-06-25T18:29:02.341Z,21.64
2019-06-25T18:31:31.934Z,21.58
2019-06-25T18:34:01.516Z,21.49
2019-06-25T18:36:31.075Z,21.44
2019-06-25T18:39:00.629Z,21.38
2019-06-25T18:41:30.196Z,21.40
2019-06-25T18:44:00.045Z,21.46
2019-06-25T18:46:29.649Z,21.46
2019-06-25T18:49:00.301Z,21.45
2019-06-25T18:51:31.773Z,21.50
2019-06-25T18:54:11.815Z,21.50
2019-06-25T18:57:06.779Z,21.50
2019-06-25T18:59:36.351Z,21.42
2019-06-25T19:02:06.086Z,21.29
2019-06-25T19:04:35.669Z,21.22
2019-06-25T19:07:08.744Z,21.09
2019-06-25T19:09:36.503Z,21.02
2019-06-25T19:12:06.073Z,20.94
2019-06-25T19:14:37.385Z,20.88
2019-06-25T19:17:07.021Z,20.86
2019-06-25T19:19:40.530Z,20.83
2019-06-25T19:22:10.265Z,20.93
2019-06-25T19:24:43.122Z,20.95
2019-06-25T19:27:13.045Z,20.92
2019-06-25T19:29:42.738Z,20.92
2019-06-25T19:32:14.309Z,20.94
2019-06-25T19:34:44.210Z,20.98
2019-06-25T19:37:14.077Z,21.03
2019-06-25T19:39:43.839Z,21.04
2019-06-25T19:42:13.624Z,21.04
2019-06-25T19:44:43.389Z,21.06
2019-06-25T19:47:17.143Z,21.04
2019-06-25T19:49:47.021Z,21.05
2019-06-25T19:52:20.076Z,21.10
2019-06-25T19:54:49.660Z,21.02
2019-06-25T19:57:19.834Z,20.93
2019-06-25T19:59:49.417Z,20.90
2019-06-25T20:02:19.353Z,20.83
2019-06-25T20:04:48.984Z,20.89
2019-06-25T20:07:18.582Z,20.73
2019-06-25T20:09:48.215Z,20.74
2019-06-25T20:12:18.228Z,20.73
2019-06-25T20:14:50.624Z,20.78
2019-06-25T20:17:20.547Z,20.83
2019-06-25T20:19:50.271Z,20.85
2019-06-25T20:22:20.032Z,20.82
2019-06-25T20:24:49.820Z,20.76
2019-06-25T20:27:23.463Z,20.69
2019-06-25T20:29:55.840Z,20.71
2019-06-25T20:32:37.530Z,20.75
2019-06-25T20:35:04.626Z,20.76
2019-06-25T20:37:34.258Z,20.72
2019-06-25T20:40:03.851Z,20.79
2019-06-25T20:42:33.527Z,20.85
2019-06-25T20:45:03.070Z,20.82
2019-06-25T20:47:33.256Z,20.91
2019-06-25T20:50:02.800Z,20.96
2019-06-25T20:52:32.296Z,21.02
2019-06-25T20:55:01.930Z,21.00
2019-06-25T20:57:31.483Z,20.95
2019-06-25T21:00:00.990Z,20.95
2019-06-25T21:02:30.512Z,20.93
2019-06-25T21:05:00.066Z,20.93
2019-06-25T21:07:29.508Z,20.95
2019-06-25T21:09:59.055Z,20.89
2019-06-25T21:12:28.587Z,20.84
2019-06-25T21:14:58.147Z,20.84
2019-06-25T21:17:28.733Z,20.86
2019-06-25T21:19:58.345Z,20.86
2019-06-25T21:22:28.158Z,20.86
2019-06-25T21:24:57.605Z,20.90
2019-06-25T21:27:27.071Z,20.95
2019-06-25T21:29:56.576Z,20.96
2019-06-25T21:32:26.188Z,20.95
2019-06-25T21:34:55.674Z,20.90
2019-06-25T21:37:25.550Z,20.90
2019-06-25T21:39:55.087Z,20.94
2019-06-25T21:42:24.582Z,20.92
2019-06-25T21:44:54.076Z,20.92
2019-06-25T21:47:23.557Z,20.92
2019-06-25T21:49:53.025Z,20.81
2019-06-25T21:52:22.505Z,20.73
2019-06-25T21:54:52.157Z,20.63
2019-06-25T21:57:21.695Z,20.59
2019-06-25T21:59:51.205Z,20.63
2019-06-25T22:02:24.377Z,20.65
2019-06-25T22:04:53.857Z,20.66
2019-06-25T22:07:23.390Z,20.68
2019-06-25T22:09:52.869Z,20.74
2019-06-25T22:12:22.414Z,20.77
2019-06-25T22:14:51.911Z,20.77
2019-06-25T22:17:21.373Z,20.78
2019-06-25T22:19:50.910Z,20.78
2019-06-25T22:22:20.730Z,20.75
2019-06-25T22:24:50.661Z,20.76
2019-06-25T22:27:20.157Z,20.75
2019-06-25T22:29:49.664Z,20.71
2019-06-25T22:32:19.150Z,20.67
2019-06-25T22:34:48.649Z,20.70
2019-06-25T22:37:18.142Z,20.66
2019-06-25T22:39:47.619Z,20.62
2019-06-25T22:42:17.190Z,20.59
2019-06-25T22:44:46.721Z,20.60
2019-06-25T22:47:16.193Z,20.62
2019-06-25T22:49:45.660Z,20.62
2019-06-25T22:52:15.141Z,20.57
2019-06-25T22:54:44.625Z,20.51
2019-06-25T22:57:14.099Z,20.43
2019-06-25T22:59:43.596Z,20.41
2019-06-25T23:02:13.167Z,20.35
2019-06-25T23:04:42.692Z,20.37
2019-06-25T23:07:12.174Z,20.37
2019-06-25T23:09:41.758Z,20.32
2019-06-25T23:12:11.258Z,20.29
2019-06-25T23:14:40.754Z,20.38
2019-06-25T23:17:10.270Z,20.35
2019-06-25T23:19:41.451Z,20.22
2019-06-25T23:22:11.117Z,20.27
2019-06-25T23:24:40.765Z,20.38
2019-06-25T23:27:10.198Z,20.43
2019-06-25T23:29:39.839Z,20.47
2019-06-25T23:32:09.346Z,20.46
2019-06-25T23:34:38.819Z,20.40
2019-06-25T23:37:08.339Z,20.39
2019-06-25T23:39:37.887Z,20.45
2019-06-25T23:42:07.453Z,20.48
2019-06-25T23:44:36.941Z,20.55
2019-06-25T23:47:06.411Z,20.66
2019-06-25T23:49:35.941Z,20.60
2019-06-25T23:52:05.513Z,20.58
2019-06-25T23:54:34.999Z,20.67
2019-06-25T23:57:04.490Z,20.62
2019-06-25T23:59:34.023Z,20.56
